sensor_id;sensor_type;location;lat;lon;timestamp;P1;durP1;ratioP1;P2;durP2;ratioP2
10894;SDS011;5500;49.886;8.074;2023-08-20T00:00:57;6.17;;;4.70;;
10894;SDS011;5500;49.886;8.074;2023-08-20T00:03:26;5.50;;;4.87;;
10894;SDS011;5500;49.886;8.074;2023-08-20T00:05:54;10.03;;;5.20;;
10894;SDS011;5500;49.886;8.074;2023-08-20T00:08:22;6.63;;;5.13;;
10894;SDS011;5500;49.886;8.074;2023-08-20T00:10:50;5.10;;;4.57;;
10894;SDS011;5500;49.886;8.074;2023-08-20T00:13:17;6.03;;;4.90;;
10894;SDS011;5500;49.886;8.074;2023-08-20T00:15:45;10.63;;;5.27;;
10894;SDS011;5500;49.886;8.074;2023-08-20T00:18:15;7.40;;;5.27;;
10894;SDS011;5500;49.886;8.074;2023-08-20T00:20:43;6.97;;;5.30;;
10894;SDS011;5500;49.886;8.074;2023-08-20T00:23:13;5.97;;;4.60;;
10894;SDS011;5500;49.886;8.074;2023-08-20T00:25:41;7.87;;;4.87;;
10894;SDS011;5500;49.886;8.074;2023-08-20T00:28:10;7.00;;;5.33;;
10894;SDS011;5500;49.886;8.074;2023-08-20T00:30:37;8.00;;;4.60;;
10894;SDS011;5500;49.886;8.074;2023-08-20T00:33:05;6.83;;;5.13;;
10894;SDS011;5500;49.886;8.074;2023-08-20T00:35:34;6.77;;;5.63;;
10894;SDS011;5500;49.886;8.074;2023-08-20T00:38:02;8.67;;;5.93;;
10894;SDS011;5500;49.886;8.074;2023-08-20T00:40:30;6.97;;;5.97;;
10894;SDS011;5500;49.886;8.074;2023-08-20T00:42:58;9.43;;;6.10;;
10894;SDS011;5500;49.886;8.074;2023-08-20T00:45:26;9.80;;;6.43;;
10894;SDS011;5500;49.886;8.074;2023-08-20T00:47:54;8.97;;;6.10;;
10894;SDS011;5500;49.886;8.074;2023-08-20T00:50:22;11.80;;;6.10;;
10894;SDS011;5500;49.886;8.074;2023-08-20T00:52:51;10.87;;;6.40;;
10894;SDS011;5500;49.886;8.074;2023-08-20T00:55:18;6.83;;;5.87;;
10894;SDS011;5500;49.886;8.074;2023-08-20T00:57:46;6.10;;;5.47;;
10894;SDS011;5500;49.886;8.074;2023-08-20T01:00:14;7.43;;;5.53;;
10894;SDS011;5500;49.886;8.074;2023-08-20T01:02:43;7.53;;;6.00;;
10894;SDS011;5500;49.886;8.074;2023-08-20T01:05:13;7.13;;;5.80;;
10894;SDS011;5500;49.886;8.074;2023-08-20T01:07:45;9.57;;;5.53;;
10894;SDS011;5500;49.886;8.074;2023-08-20T01:10:25;8.23;;;5.70;;
10894;SDS011;5500;49.886;8.074;2023-08-20T01:12:58;8.43;;;5.83;;
10894;SDS011;5500;49.886;8.074;2023-08-20T01:15:26;7.80;;;5.87;;
10894;SDS011;5500;49.886;8.074;2023-08-20T01:17:54;11.17;;;5.63;;
10894;SDS011;5500;49.886;8.074;2023-08-20T01:20:22;6.87;;;5.77;;
10894;SDS011;5500;49.886;8.074;2023-08-20T01:22:59;6.87;;;5.97;;
10894;SDS011;5500;49.886;8.074;2023-08-20T01:25:45;6.77;;;5.73;;
10894;SDS011;5500;49.886;8.074;2023-08-20T01:28:25;7.67;;;5.23;;
10894;SDS011;5500;49.886;8.074;2023-08-20T01:30:53;7.70;;;5.70;;
10894;SDS011;5500;49.886;8.074;2023-08-20T01:33:21;6.40;;;5.50;;
10894;SDS011;5500;49.886;8.074;2023-08-20T01:35:50;7.83;;;5.57;;
10894;SDS011;5500;49.886;8.074;2023-08-20T01:38:18;8.73;;;5.30;;
10894;SDS011;5500;49.886;8.074;2023-08-20T01:40:45;7.23;;;5.80;;
10894;SDS011;5500;49.886;8.074;2023-08-20T01:43:14;8.27;;;6.10;;
10894;SDS011;5500;49.886;8.074;2023-08-20T01:45:43;12.23;;;6.27;;
10894;SDS011;5500;49.886;8.074;2023-08-20T01:48:11;6.73;;;6.13;;
10894;SDS011;5500;49.886;8.074;2023-08-20T01:50:39;7.20;;;5.37;;
10894;SDS011;5500;49.886;8.074;2023-08-20T01:53:06;7.30;;;5.77;;
10894;SDS011;5500;49.886;8.074;2023-08-20T01:55:35;8.23;;;5.70;;
10894;SDS011;5500;49.886;8.074;2023-08-20T01:58:03;8.23;;;6.13;;
10894;SDS011;5500;49.886;8.074;2023-08-20T02:00:31;7.73;;;5.63;;
10894;SDS011;5500;49.886;8.074;2023-08-20T02:03:01;6.47;;;5.60;;
10894;SDS011;5500;49.886;8.074;2023-08-20T02:05:30;7.63;;;6.83;;
10894;SDS011;5500;49.886;8.074;2023-08-20T02:07:57;6.83;;;6.13;;
10894;SDS011;5500;49.886;8.074;2023-08-20T02:10:25;7.00;;;6.27;;
10894;SDS011;5500;49.886;8.074;2023-08-20T02:12:53;12.40;;;6.70;;
10894;SDS011;5500;49.886;8.074;2023-08-20T02:15:21;7.73;;;6.90;;
10894;SDS011;5500;49.886;8.074;2023-08-20T02:17:48;10.07;;;6.77;;
10894;SDS011;5500;49.886;8.074;2023-08-20T02:20:17;7.63;;;6.20;;
10894;SDS011;5500;49.886;8.074;2023-08-20T02:22:45;7.33;;;6.30;;
10894;SDS011;5500;49.886;8.074;2023-08-20T02:25:13;8.70;;;6.90;;
10894;SDS011;5500;49.886;8.074;2023-08-20T02:27:41;8.63;;;7.43;;
10894;SDS011;5500;49.886;8.074;2023-08-20T02:30:09;9.20;;;7.63;;
10894;SDS011;5500;49.886;8.074;2023-08-20T02:32:39;8.37;;;7.57;;
10894;SDS011;5500;49.886;8.074;2023-08-20T02:35:07;17.13;;;7.53;;
10894;SDS011;5500;49.886;8.074;2023-08-20T02:37:37;8.90;;;7.83;;
10894;SDS011;5500;49.886;8.074;2023-08-20T02:40:08;8.30;;;7.43;;
10894;SDS011;5500;49.886;8.074;2023-08-20T02:42:38;9.20;;;8.10;;
10894;SDS011;5500;49.886;8.074;2023-08-20T02:45:06;12.20;;;7.50;;
10894;SDS011;5500;49.886;8.074;2023-08-20T02:47:34;8.77;;;7.90;;
10894;SDS011;5500;49.886;8.074;2023-08-20T02:50:03;10.33;;;7.00;;
10894;SDS011;5500;49.886;8.074;2023-08-20T02:52:31;8.63;;;7.70;;
10894;SDS011;5500;49.886;8.074;2023-08-20T02:55:00;8.60;;;7.33;;
10894;SDS011;5500;49.886;8.074;2023-08-20T02:57:29;10.10;;;7.50;;
10894;SDS011;5500;49.886;8.074;2023-08-20T02:59:57;9.33;;;7.60;;
10894;SDS011;5500;49.886;8.074;2023-08-20T03:02:25;10.20;;;8.07;;
10894;SDS011;5500;49.886;8.074;2023-08-20T03:04:53;10.30;;;7.43;;
10894;SDS011;5500;49.886;8.074;2023-08-20T03:07:22;10.33;;;8.07;;
10894;SDS011;5500;49.886;8.074;2023-08-20T03:09:49;11.43;;;7.63;;
10894;SDS011;5500;49.886;8.074;2023-08-20T03:12:18;8.97;;;7.20;;
10894;SDS011;5500;49.886;8.074;2023-08-20T03:14:46;9.80;;;7.20;;
10894;SDS011;5500;49.886;8.074;2023-08-20T03:17:14;11.47;;;7.00;;
10894;SDS011;5500;49.886;8.074;2023-08-20T03:19:53;8.57;;;7.23;;
10894;SDS011;5500;49.886;8.074;2023-08-20T03:22:21;7.90;;;7.00;;
10894;SDS011;5500;49.886;8.074;2023-08-20T03:24:49;8.07;;;7.30;;
10894;SDS011;5500;49.886;8.074;2023-08-20T03:27:16;7.40;;;6.67;;
10894;SDS011;5500;49.886;8.074;2023-08-20T03:29:45;9.10;;;6.87;;
10894;SDS011;5500;49.886;8.074;2023-08-20T03:32:13;9.63;;;6.60;;
10894;SDS011;5500;49.886;8.074;2023-08-20T03:34:41;8.80;;;6.33;;
10894;SDS011;5500;49.886;8.074;2023-08-20T03:37:08;8.30;;;5.93;;
10894;SDS011;5500;49.886;8.074;2023-08-20T03:39:36;7.93;;;6.27;;
10894;SDS011;5500;49.886;8.074;2023-08-20T03:42:04;7.80;;;5.83;;
10894;SDS011;5500;49.886;8.074;2023-08-20T03:44:33;9.00;;;6.40;;
10894;SDS011;5500;49.886;8.074;2023-08-20T03:47:01;8.23;;;6.47;;
10894;SDS011;5500;49.886;8.074;2023-08-20T03:49:30;7.30;;;6.27;;
10894;SDS011;5500;49.886;8.074;2023-08-20T03:51:58;9.63;;;5.53;;
10894;SDS011;5500;49.886;8.074;2023-08-20T03:54:28;7.47;;;5.67;;
10894;SDS011;5500;49.886;8.074;2023-08-20T03:56:55;9.23;;;6.60;;
10894;SDS011;5500;49.886;8.074;2023-08-20T03:59:23;6.93;;;6.10;;
10894;SDS011;5500;49.886;8.074;2023-08-20T04:01:52;6.40;;;5.80;;
10894;SDS011;5500;49.886;8.074;2023-08-20T04:04:20;7.67;;;6.27;;
10894;SDS011;5500;49.886;8.074;2023-08-20T04:06:48;7.83;;;5.93;;
10894;SDS011;5500;49.886;8.074;2023-08-20T04:09:16;8.43;;;6.17;;
10894;SDS011;5500;49.886;8.074;2023-08-20T04:11:43;7.57;;;5.77;;
10894;SDS011;5500;49.886;8.074;2023-08-20T04:14:11;9.07;;;6.10;;
10894;SDS011;5500;49.886;8.074;2023-08-20T04:16:39;11.53;;;6.57;;
10894;SDS011;5500;49.886;8.074;2023-08-20T04:19:08;10.13;;;6.60;;
10894;SDS011;5500;49.886;8.074;2023-08-20T04:21:38;13.00;;;6.63;;
10894;SDS011;5500;49.886;8.074;2023-08-20T04:24:06;7.37;;;6.00;;
10894;SDS011;5500;49.886;8.074;2023-08-20T04:26:33;8.03;;;6.47;;
10894;SDS011;5500;49.886;8.074;2023-08-20T04:29:01;10.90;;;6.70;;
10894;SDS011;5500;49.886;8.074;2023-08-20T04:31:29;8.40;;;6.70;;
10894;SDS011;5500;49.886;8.074;2023-08-20T04:33:57;10.33;;;6.80;;
10894;SDS011;5500;49.886;8.074;2023-08-20T04:36:26;9.10;;;6.27;;
10894;SDS011;5500;49.886;8.074;2023-08-20T04:38:53;7.30;;;6.60;;
10894;SDS011;5500;49.886;8.074;2023-08-20T04:41:21;7.63;;;6.90;;
10894;SDS011;5500;49.886;8.074;2023-08-20T04:43:49;7.47;;;6.60;;
10894;SDS011;5500;49.886;8.074;2023-08-20T04:46:16;7.23;;;6.53;;
10894;SDS011;5500;49.886;8.074;2023-08-20T04:48:44;10.97;;;7.20;;
10894;SDS011;5500;49.886;8.074;2023-08-20T04:51:12;7.80;;;7.00;;
10894;SDS011;5500;49.886;8.074;2023-08-20T04:53:41;8.47;;;6.80;;
10894;SDS011;5500;49.886;8.074;2023-08-20T04:56:09;9.13;;;6.67;;
10894;SDS011;5500;49.886;8.074;2023-08-20T04:58:37;11.83;;;6.63;;
10894;SDS011;5500;49.886;8.074;2023-08-20T05:01:04;10.33;;;6.90;;
10894;SDS011;5500;49.886;8.074;2023-08-20T05:03:32;8.57;;;6.13;;
10894;SDS011;5500;49.886;8.074;2023-08-20T05:06:00;11.13;;;6.73;;
10894;SDS011;5500;49.886;8.074;2023-08-20T05:08:28;10.00;;;7.33;;
10894;SDS011;5500;49.886;8.074;2023-08-20T05:10:57;9.33;;;6.67;;
10894;SDS011;5500;49.886;8.074;2023-08-20T05:13:25;7.43;;;6.63;;
10894;SDS011;5500;49.886;8.074;2023-08-20T05:15:52;7.83;;;6.20;;
10894;SDS011;5500;49.886;8.074;2023-08-20T05:18:20;6.63;;;6.03;;
10894;SDS011;5500;49.886;8.074;2023-08-20T05:20:48;10.13;;;6.30;;
10894;SDS011;5500;49.886;8.074;2023-08-20T05:23:15;8.60;;;5.80;;
10894;SDS011;5500;49.886;8.074;2023-08-20T05:25:43;8.20;;;5.70;;
10894;SDS011;5500;49.886;8.074;2023-08-20T05:28:12;7.47;;;6.37;;
10894;SDS011;5500;49.886;8.074;2023-08-20T05:30:40;7.63;;;5.63;;
10894;SDS011;5500;49.886;8.074;2023-08-20T05:33:08;9.17;;;6.03;;
10894;SDS011;5500;49.886;8.074;2023-08-20T05:35:35;7.10;;;6.10;;
10894;SDS011;5500;49.886;8.074;2023-08-20T05:38:03;10.33;;;5.53;;
10894;SDS011;5500;49.886;8.074;2023-08-20T05:40:31;8.00;;;5.80;;
10894;SDS011;5500;49.886;8.074;2023-08-20T05:42:59;10.17;;;6.37;;
10894;SDS011;5500;49.886;8.074;2023-08-20T05:45:28;8.30;;;6.20;;
10894;SDS011;5500;49.886;8.074;2023-08-20T05:47:56;6.77;;;5.40;;
10894;SDS011;5500;49.886;8.074;2023-08-20T05:50:23;9.50;;;5.67;;
10894;SDS011;5500;49.886;8.074;2023-08-20T05:52:51;6.30;;;4.90;;
10894;SDS011;5500;49.886;8.074;2023-08-20T05:55:19;9.63;;;5.57;;
10894;SDS011;5500;49.886;8.074;2023-08-20T05:57:47;6.37;;;5.13;;
10894;SDS011;5500;49.886;8.074;2023-08-20T06:00:15;5.70;;;5.30;;
10894;SDS011;5500;49.886;8.074;2023-08-20T06:02:45;8.30;;;5.40;;
10894;SDS011;5500;49.886;8.074;2023-08-20T06:05:13;6.53;;;5.27;;
10894;SDS011;5500;49.886;8.074;2023-08-20T06:07:40;8.10;;;5.83;;
10894;SDS011;5500;49.886;8.074;2023-08-20T06:10:08;6.87;;;5.00;;
10894;SDS011;5500;49.886;8.074;2023-08-20T06:12:38;5.23;;;4.73;;
10894;SDS011;5500;49.886;8.074;2023-08-20T06:15:06;7.70;;;4.57;;
10894;SDS011;5500;49.886;8.074;2023-08-20T06:17:35;5.17;;;4.70;;
10894;SDS011;5500;49.886;8.074;2023-08-20T06:20:05;4.97;;;4.57;;
10894;SDS011;5500;49.886;8.074;2023-08-20T06:22:35;5.63;;;5.07;;
10894;SDS011;5500;49.886;8.074;2023-08-20T06:25:04;5.33;;;4.83;;
10894;SDS011;5500;49.886;8.074;2023-08-20T06:27:33;6.90;;;5.30;;
10894;SDS011;5500;49.886;8.074;2023-08-20T06:30:02;5.80;;;4.70;;
10894;SDS011;5500;49.886;8.074;2023-08-20T06:32:30;5.17;;;4.30;;
10894;SDS011;5500;49.886;8.074;2023-08-20T06:34:58;5.60;;;4.53;;
10894;SDS011;5500;49.886;8.074;2023-08-20T06:37:27;5.83;;;4.53;;
10894;SDS011;5500;49.886;8.074;2023-08-20T06:39:55;5.03;;;4.30;;
10894;SDS011;5500;49.886;8.074;2023-08-20T06:42:22;5.83;;;5.30;;
10894;SDS011;5500;49.886;8.074;2023-08-20T06:44:50;5.40;;;4.63;;
10894;SDS011;5500;49.886;8.074;2023-08-20T06:47:18;7.20;;;4.77;;
10894;SDS011;5500;49.886;8.074;2023-08-20T06:49:45;6.47;;;4.70;;
10894;SDS011;5500;49.886;8.074;2023-08-20T06:52:13;5.40;;;4.90;;
10894;SDS011;5500;49.886;8.074;2023-08-20T06:54:42;6.67;;;4.80;;
10894;SDS011;5500;49.886;8.074;2023-08-20T06:57:10;7.93;;;4.47;;
10894;SDS011;5500;49.886;8.074;2023-08-20T06:59:37;4.80;;;4.40;;
10894;SDS011;5500;49.886;8.074;2023-08-20T07:02:05;6.30;;;5.00;;
10894;SDS011;5500;49.886;8.074;2023-08-20T07:04:33;8.30;;;4.77;;
10894;SDS011;5500;49.886;8.074;2023-08-20T07:07:01;6.57;;;4.50;;
10894;SDS011;5500;49.886;8.074;2023-08-20T07:09:31;6.83;;;4.47;;
10894;SDS011;5500;49.886;8.074;2023-08-20T07:12:00;9.33;;;5.50;;
10894;SDS011;5500;49.886;8.074;2023-08-20T07:14:28;5.10;;;4.60;;
10894;SDS011;5500;49.886;8.074;2023-08-20T07:16:56;7.87;;;5.00;;
10894;SDS011;5500;49.886;8.074;2023-08-20T07:19:23;7.63;;;5.00;;
10894;SDS011;5500;49.886;8.074;2023-08-20T07:21:51;5.97;;;4.50;;
10894;SDS011;5500;49.886;8.074;2023-08-20T07:24:19;5.07;;;4.53;;
10894;SDS011;5500;49.886;8.074;2023-08-20T07:26:51;10.47;;;4.93;;
10894;SDS011;5500;49.886;8.074;2023-08-20T07:29:23;7.03;;;4.30;;
10894;SDS011;5500;49.886;8.074;2023-08-20T07:31:51;5.63;;;4.03;;
10894;SDS011;5500;49.886;8.074;2023-08-20T07:34:19;8.18;;;5.05;;
10894;SDS011;5500;49.886;8.074;2023-08-20T07:36:46;5.23;;;4.83;;
10894;SDS011;5500;49.886;8.074;2023-08-20T07:39:14;5.60;;;4.60;;
10894;SDS011;5500;49.886;8.074;2023-08-20T07:41:44;6.13;;;4.68;;
10894;SDS011;5500;49.886;8.074;2023-08-20T07:44:11;4.97;;;4.47;;
10894;SDS011;5500;49.886;8.074;2023-08-20T07:46:41;8.00;;;5.22;;
10894;SDS011;5500;49.886;8.074;2023-08-20T07:49:09;6.78;;;4.90;;
10894;SDS011;5500;49.886;8.074;2023-08-20T07:51:36;8.90;;;4.93;;
10894;SDS011;5500;49.886;8.074;2023-08-20T07:54:04;6.82;;;4.63;;
10894;SDS011;5500;49.886;8.074;2023-08-20T07:56:32;5.90;;;4.78;;
10894;SDS011;5500;49.886;8.074;2023-08-20T07:58:59;7.30;;;4.80;;
10894;SDS011;5500;49.886;8.074;2023-08-20T08:01:27;6.47;;;4.68;;
10894;SDS011;5500;49.886;8.074;2023-08-20T08:03:56;6.85;;;4.20;;
10894;SDS011;5500;49.886;8.074;2023-08-20T08:06:24;7.22;;;4.65;;
10894;SDS011;5500;49.886;8.074;2023-08-20T08:08:52;5.65;;;4.45;;
10894;SDS011;5500;49.886;8.074;2023-08-20T08:11:19;5.28;;;4.38;;
10894;SDS011;5500;49.886;8.074;2023-08-20T08:13:47;4.88;;;4.47;;
10894;SDS011;5500;49.886;8.074;2023-08-20T08:16:15;5.68;;;4.53;;
10894;SDS011;5500;49.886;8.074;2023-08-20T08:18:43;6.28;;;4.70;;
10894;SDS011;5500;49.886;8.074;2023-08-20T08:21:12;5.85;;;4.32;;
10894;SDS011;5500;49.886;8.074;2023-08-20T08:23:40;4.95;;;4.40;;
10894;SDS011;5500;49.886;8.074;2023-08-20T08:26:07;6.88;;;4.60;;
10894;SDS011;5500;49.886;8.074;2023-08-20T08:28:35;7.28;;;4.72;;
10894;SDS011;5500;49.886;8.074;2023-08-20T08:31:03;7.57;;;4.63;;
10894;SDS011;5500;49.886;8.074;2023-08-20T08:33:33;4.75;;;4.35;;
10894;SDS011;5500;49.886;8.074;2023-08-20T08:36:01;5.20;;;4.43;;
10894;SDS011;5500;49.886;8.074;2023-08-20T08:38:30;5.60;;;4.22;;
10894;SDS011;5500;49.886;8.074;2023-08-20T08:40:57;5.90;;;4.60;;
10894;SDS011;5500;49.886;8.074;2023-08-20T08:43:26;4.70;;;4.25;;
10894;SDS011;5500;49.886;8.074;2023-08-20T08:45:55;6.45;;;4.60;;
10894;SDS011;5500;49.886;8.074;2023-08-20T08:48:24;6.32;;;4.55;;
10894;SDS011;5500;49.886;8.074;2023-08-20T08:50:52;5.45;;;4.50;;
10894;SDS011;5500;49.886;8.074;2023-08-20T08:53:20;5.45;;;4.40;;
10894;SDS011;5500;49.886;8.074;2023-08-20T08:55:50;5.55;;;4.40;;
10894;SDS011;5500;49.886;8.074;2023-08-20T08:58:17;7.65;;;4.93;;
10894;SDS011;5500;49.886;8.074;2023-08-20T09:00:45;4.80;;;4.28;;
10894;SDS011;5500;49.886;8.074;2023-08-20T09:03:13;6.72;;;4.72;;
10894;SDS011;5500;49.886;8.074;2023-08-20T09:05:47;5.03;;;4.30;;
10894;SDS011;5500;49.886;8.074;2023-08-20T09:08:18;6.28;;;4.40;;
10894;SDS011;5500;49.886;8.074;2023-08-20T09:10:50;5.07;;;4.57;;
10894;SDS011;5500;49.886;8.074;2023-08-20T09:13:21;4.60;;;4.13;;
10894;SDS011;5500;49.886;8.074;2023-08-20T09:15:50;5.53;;;4.93;;
10894;SDS011;5500;49.886;8.074;2023-08-20T09:18:18;7.30;;;5.13;;
10894;SDS011;5500;49.886;8.074;2023-08-20T09:20:47;4.90;;;4.38;;
10894;SDS011;5500;49.886;8.074;2023-08-20T09:23:15;6.13;;;4.18;;
10894;SDS011;5500;49.886;8.074;2023-08-20T09:25:43;7.78;;;4.70;;
10894;SDS011;5500;49.886;8.074;2023-08-20T09:28:13;5.90;;;4.63;;
10894;SDS011;5500;49.886;8.074;2023-08-20T09:30:47;9.10;;;5.25;;
10894;SDS011;5500;49.886;8.074;2023-08-20T09:33:22;6.32;;;5.03;;
10894;SDS011;5500;49.886;8.074;2023-08-20T09:35:50;5.30;;;4.80;;
10894;SDS011;5500;49.886;8.074;2023-08-20T09:38:20;5.38;;;4.32;;
10894;SDS011;5500;49.886;8.074;2023-08-20T09:40:48;4.88;;;4.45;;
10894;SDS011;5500;49.886;8.074;2023-08-20T09:43:20;5.20;;;4.70;;
10894;SDS011;5500;49.886;8.074;2023-08-20T09:45:52;4.95;;;4.45;;
10894;SDS011;5500;49.886;8.074;2023-08-20T09:48:22;5.57;;;4.10;;
10894;SDS011;5500;49.886;8.074;2023-08-20T09:50:51;4.90;;;4.50;;
10894;SDS011;5500;49.886;8.074;2023-08-20T09:53:26;5.05;;;4.55;;
10894;SDS011;5500;49.886;8.074;2023-08-20T09:55:55;5.35;;;4.40;;
10894;SDS011;5500;49.886;8.074;2023-08-20T09:58:25;4.40;;;4.00;;
10894;SDS011;5500;49.886;8.074;2023-08-20T10:00:53;6.55;;;4.40;;
10894;SDS011;5500;49.886;8.074;2023-08-20T10:03:21;4.90;;;4.40;;
10894;SDS011;5500;49.886;8.074;2023-08-20T10:05:49;5.43;;;4.43;;
10894;SDS011;5500;49.886;8.074;2023-08-20T10:08:17;5.35;;;4.85;;
10894;SDS011;5500;49.886;8.074;2023-08-20T10:10:45;6.25;;;4.60;;
10894;SDS011;5500;49.886;8.074;2023-08-20T10:13:14;4.72;;;4.20;;
10894;SDS011;5500;49.886;8.074;2023-08-20T10:15:45;6.47;;;4.60;;
10894;SDS011;5500;49.886;8.074;2023-08-20T10:18:13;4.68;;;3.92;;
10894;SDS011;5500;49.886;8.074;2023-08-20T10:20:41;5.53;;;4.45;;
10894;SDS011;5500;49.886;8.074;2023-08-20T10:23:09;5.78;;;4.57;;
10894;SDS011;5500;49.886;8.074;2023-08-20T10:25:42;4.45;;;4.05;;
10894;SDS011;5500;49.886;8.074;2023-08-20T10:28:13;6.95;;;4.60;;
10894;SDS011;5500;49.886;8.074;2023-08-20T10:33:33;5.47;;;4.45;;
10894;SDS011;5500;49.886;8.074;2023-08-20T10:36:08;5.88;;;4.68;;
10894;SDS011;5500;49.886;8.074;2023-08-20T10:38:37;4.93;;;4.40;;
10894;SDS011;5500;49.886;8.074;2023-08-20T10:41:05;5.43;;;4.45;;
10894;SDS011;5500;49.886;8.074;2023-08-20T10:43:34;7.07;;;4.95;;
10894;SDS011;5500;49.886;8.074;2023-08-20T10:48:47;4.30;;;3.85;;
10894;SDS011;5500;49.886;8.074;2023-08-20T10:51:16;4.97;;;4.07;;
10894;SDS011;5500;49.886;8.074;2023-08-20T10:53:48;5.70;;;4.13;;
10894;SDS011;5500;49.886;8.074;2023-08-20T10:59:15;4.40;;;3.92;;
10894;SDS011;5500;49.886;8.074;2023-08-20T11:01:45;6.00;;;4.03;;
10894;SDS011;5500;49.886;8.074;2023-08-20T11:04:14;6.15;;;3.80;;
10894;SDS011;5500;49.886;8.074;2023-08-20T11:06:42;6.75;;;4.05;;
10894;SDS011;5500;49.886;8.074;2023-08-20T11:09:10;4.45;;;3.70;;
10894;SDS011;5500;49.886;8.074;2023-08-20T11:11:38;4.07;;;3.65;;
10894;SDS011;5500;49.886;8.074;2023-08-20T11:14:06;4.13;;;3.72;;
10894;SDS011;5500;49.886;8.074;2023-08-20T11:16:35;5.20;;;3.80;;
10894;SDS011;5500;49.886;8.074;2023-08-20T11:19:04;4.60;;;3.40;;
10894;SDS011;5500;49.886;8.074;2023-08-20T11:21:35;3.97;;;3.42;;
10894;SDS011;5500;49.886;8.074;2023-08-20T11:24:03;4.70;;;3.60;;
10894;SDS011;5500;49.886;8.074;2023-08-20T11:26:32;5.40;;;3.58;;
10894;SDS011;5500;49.886;8.074;2023-08-20T11:29:00;6.28;;;3.45;;
10894;SDS011;5500;49.886;8.074;2023-08-20T11:31:28;6.68;;;3.90;;
10894;SDS011;5500;49.886;8.074;2023-08-20T11:33:56;4.15;;;3.33;;
10894;SDS011;5500;49.886;8.074;2023-08-20T11:36:26;5.22;;;3.58;;
10894;SDS011;5500;49.886;8.074;2023-08-20T11:38:53;6.82;;;3.80;;
10894;SDS011;5500;49.886;8.074;2023-08-20T11:41:22;5.13;;;3.38;;
10894;SDS011;5500;49.886;8.074;2023-08-20T11:43:50;3.97;;;3.20;;
10894;SDS011;5500;49.886;8.074;2023-08-20T11:46:19;4.97;;;3.65;;
10894;SDS011;5500;49.886;8.074;2023-08-20T11:49:00;5.90;;;3.75;;
10894;SDS011;5500;49.886;8.074;2023-08-20T11:51:36;5.18;;;4.13;;
10894;SDS011;5500;49.886;8.074;2023-08-20T11:54:05;4.82;;;4.07;;
10894;SDS011;5500;49.886;8.074;2023-08-20T11:56:33;4.28;;;3.78;;
10894;SDS011;5500;49.886;8.074;2023-08-20T11:59:01;5.00;;;3.70;;
10894;SDS011;5500;49.886;8.074;2023-08-20T12:01:32;4.47;;;3.80;;
10894;SDS011;5500;49.886;8.074;2023-08-20T12:04:00;6.72;;;3.80;;
10894;SDS011;5500;49.886;8.074;2023-08-20T12:06:29;5.18;;;3.65;;
10894;SDS011;5500;49.886;8.074;2023-08-20T12:08:59;5.03;;;3.63;;
10894;SDS011;5500;49.886;8.074;2023-08-20T12:11:27;6.82;;;3.58;;
10894;SDS011;5500;49.886;8.074;2023-08-20T12:13:55;6.93;;;3.67;;
10894;SDS011;5500;49.886;8.074;2023-08-20T12:16:23;3.55;;;3.25;;
10894;SDS011;5500;49.886;8.074;2023-08-20T12:18:52;3.35;;;3.05;;
10894;SDS011;5500;49.886;8.074;2023-08-20T12:21:20;5.00;;;3.35;;
10894;SDS011;5500;49.886;8.074;2023-08-20T12:23:47;5.72;;;3.40;;
10894;SDS011;5500;49.886;8.074;2023-08-20T12:26:17;5.55;;;3.55;;
10894;SDS011;5500;49.886;8.074;2023-08-20T12:28:44;4.57;;;3.78;;
10894;SDS011;5500;49.886;8.074;2023-08-20T12:31:12;6.38;;;3.55;;
10894;SDS011;5500;49.886;8.074;2023-08-20T12:33:40;7.75;;;3.72;;
10894;SDS011;5500;49.886;8.074;2023-08-20T12:36:08;3.70;;;3.35;;
10894;SDS011;5500;49.886;8.074;2023-08-20T12:38:36;7.32;;;3.60;;
10894;SDS011;5500;49.886;8.074;2023-08-20T12:41:03;4.32;;;3.90;;
10894;SDS011;5500;49.886;8.074;2023-08-20T12:43:33;6.75;;;3.53;;
10894;SDS011;5500;49.886;8.074;2023-08-20T12:46:01;5.60;;;3.83;;
10894;SDS011;5500;49.886;8.074;2023-08-20T12:48:29;6.75;;;3.83;;
10894;SDS011;5500;49.886;8.074;2023-08-20T12:50:57;6.07;;;3.55;;
10894;SDS011;5500;49.886;8.074;2023-08-20T12:53:25;4.40;;;3.10;;
10894;SDS011;5500;49.886;8.074;2023-08-20T12:55:52;4.47;;;3.20;;
10894;SDS011;5500;49.886;8.074;2023-08-20T12:58:20;4.97;;;3.65;;
10894;SDS011;5500;49.886;8.074;2023-08-20T13:00:51;8.60;;;3.85;;
10894;SDS011;5500;49.886;8.074;2023-08-20T13:03:19;6.53;;;3.42;;
10894;SDS011;5500;49.886;8.074;2023-08-20T13:05:48;9.02;;;3.50;;
10894;SDS011;5500;49.886;8.074;2023-08-20T13:08:16;4.05;;;3.50;;
10894;SDS011;5500;49.886;8.074;2023-08-20T13:10:45;5.40;;;3.20;;
10894;SDS011;5500;49.886;8.074;2023-08-20T13:13:17;3.97;;;3.20;;
10894;SDS011;5500;49.886;8.074;2023-08-20T13:15:46;3.42;;;3.13;;
10894;SDS011;5500;49.886;8.074;2023-08-20T13:18:16;4.10;;;3.30;;
10894;SDS011;5500;49.886;8.074;2023-08-20T13:20:44;8.05;;;3.67;;
10894;SDS011;5500;49.886;8.074;2023-08-20T13:23:11;3.78;;;3.10;;
10894;SDS011;5500;49.886;8.074;2023-08-20T13:25:39;4.10;;;3.50;;
10894;SDS011;5500;49.886;8.074;2023-08-20T13:28:09;6.07;;;3.72;;
10894;SDS011;5500;49.886;8.074;2023-08-20T13:30:36;3.95;;;3.60;;
10894;SDS011;5500;49.886;8.074;2023-08-20T13:33:04;3.47;;;3.10;;
10894;SDS011;5500;49.886;8.074;2023-08-20T13:35:33;4.05;;;3.58;;
10894;SDS011;5500;49.886;8.074;2023-08-20T13:38:01;4.18;;;3.33;;
10894;SDS011;5500;49.886;8.074;2023-08-20T13:40:30;4.05;;;3.70;;
10894;SDS011;5500;49.886;8.074;2023-08-20T13:42:58;5.10;;;3.22;;
10894;SDS011;5500;49.886;8.074;2023-08-20T13:45:26;6.20;;;3.70;;
10894;SDS011;5500;49.886;8.074;2023-08-20T13:47:53;3.80;;;3.40;;
10894;SDS011;5500;49.886;8.074;2023-08-20T13:50:22;4.57;;;3.38;;
10894;SDS011;5500;49.886;8.074;2023-08-20T13:52:51;5.82;;;3.65;;
10894;SDS011;5500;49.886;8.074;2023-08-20T13:55:18;5.07;;;3.33;;
10894;SDS011;5500;49.886;8.074;2023-08-20T13:57:47;4.00;;;2.72;;
10894;SDS011;5500;49.886;8.074;2023-08-20T14:00:15;6.18;;;3.22;;
10894;SDS011;5500;49.886;8.074;2023-08-20T14:02:43;6.53;;;3.60;;
10894;SDS011;5500;49.886;8.074;2023-08-20T14:05:11;5.07;;;2.97;;
10894;SDS011;5500;49.886;8.074;2023-08-20T14:07:41;3.40;;;3.10;;
10894;SDS011;5500;49.886;8.074;2023-08-20T14:10:10;8.05;;;3.65;;
10894;SDS011;5500;49.886;8.074;2023-08-20T14:12:38;4.28;;;2.70;;
10894;SDS011;5500;49.886;8.074;2023-08-20T14:15:08;5.80;;;3.13;;
10894;SDS011;5500;49.886;8.074;2023-08-20T14:17:36;7.50;;;3.58;;
10894;SDS011;5500;49.886;8.074;2023-08-20T14:20:05;5.38;;;3.60;;
10894;SDS011;5500;49.886;8.074;2023-08-20T14:22:34;5.18;;;3.33;;
10894;SDS011;5500;49.886;8.074;2023-08-20T14:25:03;3.95;;;3.08;;
10894;SDS011;5500;49.886;8.074;2023-08-20T14:27:32;3.50;;;3.20;;
10894;SDS011;5500;49.886;8.074;2023-08-20T14:30:00;4.55;;;3.22;;
10894;SDS011;5500;49.886;8.074;2023-08-20T14:32:28;4.18;;;3.10;;
10894;SDS011;5500;49.886;8.074;2023-08-20T14:34:56;3.83;;;3.05;;
10894;SDS011;5500;49.886;8.074;2023-08-20T14:37:24;5.25;;;3.13;;
10894;SDS011;5500;49.886;8.074;2023-08-20T14:39:52;5.35;;;3.20;;
10894;SDS011;5500;49.886;8.074;2023-08-20T14:42:20;3.50;;;3.20;;
10894;SDS011;5500;49.886;8.074;2023-08-20T14:44:49;4.20;;;3.25;;
10894;SDS011;5500;49.886;8.074;2023-08-20T14:47:17;3.60;;;3.30;;
10894;SDS011;5500;49.886;8.074;2023-08-20T14:49:44;3.35;;;3.05;;
10894;SDS011;5500;49.886;8.074;2023-08-20T14:52:12;4.68;;;3.13;;
10894;SDS011;5500;49.886;8.074;2023-08-20T14:54:45;6.05;;;3.10;;
10894;SDS011;5500;49.886;8.074;2023-08-20T14:57:13;4.47;;;3.38;;
10894;SDS011;5500;49.886;8.074;2023-08-20T14:59:44;5.25;;;3.50;;
10894;SDS011;5500;49.886;8.074;2023-08-20T15:02:13;4.15;;;3.10;;
10894;SDS011;5500;49.886;8.074;2023-08-20T15:04:41;3.40;;;3.08;;
10894;SDS011;5500;49.886;8.074;2023-08-20T15:07:09;4.68;;;3.00;;
10894;SDS011;5500;49.886;8.074;2023-08-20T15:09:37;5.13;;;3.33;;
10894;SDS011;5500;49.886;8.074;2023-08-20T15:12:05;4.53;;;3.00;;
10894;SDS011;5500;49.886;8.074;2023-08-20T15:14:33;3.50;;;3.15;;
10894;SDS011;5500;49.886;8.074;2023-08-20T15:17:01;6.88;;;3.25;;